sensor_id;sensor_type;location;lat;lon;timestamp;temperature;humidity
12811;DHT22;6470;47.654;7.896;2024-02-26T00:02:24;4.40;99.90
12811;DHT22;6470;47.654;7.896;2024-02-26T00:04:50;4.50;99.90
12811;DHT22;6470;47.654;7.896;2024-02-26T00:07:16;4.40;99.90
12811;DHT22;6470;47.654;7.896;2024-02-26T00:09:41;4.30;99.90
12811;DHT22;6470;47.654;7.896;2024-02-26T00:14:34;8.10;99.90
12811;DHT22;6470;47.654;7.896;2024-02-26T00:17:00;7.40;99.90
12811;DHT22;6470;47.654;7.896;2024-02-26T00:19:26;7.20;99.90
12811;DHT22;6470;47.654;7.896;2024-02-26T00:24:19;6.90;99.90
12811;DHT22;6470;47.654;7.896;2024-02-26T00:26:45;7.10;99.90
12811;DHT22;6470;47.654;7.896;2024-02-26T00:29:10;6.20;99.90
12811;DHT22;6470;47.654;7.896;2024-02-26T00:31:37;6.80;99.90
12811;DHT22;6470;47.654;7.896;2024-02-26T00:34:03;6.70;99.90
12811;DHT22;6470;47.654;7.896;2024-02-26T00:38:55;6.50;99.90
12811;DHT22;6470;47.654;7.896;2024-02-26T00:41:21;6.90;99.90
12811;DHT22;6470;47.654;7.896;2024-02-26T00:43:47;7.20;99.90
12811;DHT22;6470;47.654;7.896;2024-02-26T00:46:13;7.00;99.90
12811;DHT22;6470;47.654;7.896;2024-02-26T00:48:38;6.70;99.90
12811;DHT22;6470;47.654;7.896;2024-02-26T00:51:05;7.00;99.90
12811;DHT22;6470;47.654;7.896;2024-02-26T00:55:57;4.20;99.90
12811;DHT22;6470;47.654;7.896;2024-02-26T00:58:26;6.80;99.90
12811;DHT22;6470;47.654;7.896;2024-02-26T01:00:52;7.50;99.90
12811;DHT22;6470;47.654;7.896;2024-02-26T01:03:18;6.60;99.90
12811;DHT22;6470;47.654;7.896;2024-02-26T01:13:02;6.90;99.90
12811;DHT22;6470;47.654;7.896;2024-02-26T01:15:28;7.10;99.90
12811;DHT22;6470;47.654;7.896;2024-02-26T01:17:54;3.90;99.90
12811;DHT22;6470;47.654;7.896;2024-02-26T01:20:20;7.00;99.90
12811;DHT22;6470;47.654;7.896;2024-02-26T01:22:46;3.70;99.90
12811;DHT22;6470;47.654;7.896;2024-02-26T01:30:07;6.60;99.90
12811;DHT22;6470;47.654;7.896;2024-02-26T01:32:33;6.90;99.90
12811;DHT22;6470;47.654;7.896;2024-02-26T01:34:58;6.80;99.90
12811;DHT22;6470;47.654;7.896;2024-02-26T01:37:24;6.60;99.90
12811;DHT22;6470;47.654;7.896;2024-02-26T01:39:51;6.50;99.90
12811;DHT22;6470;47.654;7.896;2024-02-26T01:42:16;3.70;99.90
12811;DHT22;6470;47.654;7.896;2024-02-26T01:44:42;6.40;99.90
12811;DHT22;6470;47.654;7.896;2024-02-26T01:47:10;6.90;99.90
12811;DHT22;6470;47.654;7.896;2024-02-26T01:49:37;7.00;99.90
12811;DHT22;6470;47.654;7.896;2024-02-26T01:52:03;7.10;99.90
12811;DHT22;6470;47.654;7.896;2024-02-26T01:54:30;7.60;99.90
12811;DHT22;6470;47.654;7.896;2024-02-26T01:56:56;7.40;99.90
12811;DHT22;6470;47.654;7.896;2024-02-26T01:59:23;7.50;99.90
12811;DHT22;6470;47.654;7.896;2024-02-26T02:01:55;4.90;99.90
12811;DHT22;6470;47.654;7.896;2024-02-26T02:04:23;7.50;99.90
12811;DHT22;6470;47.654;7.896;2024-02-26T02:06:50;7.40;99.90
12811;DHT22;6470;47.654;7.896;2024-02-26T02:09:18;7.70;99.90
12811;DHT22;6470;47.654;7.896;2024-02-26T02:14:10;7.20;99.90
12811;DHT22;6470;47.654;7.896;2024-02-26T02:16:36;7.80;99.90
12811;DHT22;6470;47.654;7.896;2024-02-26T02:19:01;4.40;99.90
12811;DHT22;6470;47.654;7.896;2024-02-26T02:21:27;7.40;99.90
12811;DHT22;6470;47.654;7.896;2024-02-26T02:26:19;6.80;99.90
12811;DHT22;6470;47.654;7.896;2024-02-26T02:28:46;7.10;99.90
12811;DHT22;6470;47.654;7.896;2024-02-26T02:31:12;7.10;99.90
12811;DHT22;6470;47.654;7.896;2024-02-26T02:33:38;6.30;99.90
12811;DHT22;6470;47.654;7.896;2024-02-26T02:36:04;6.90;99.90
12811;DHT22;6470;47.654;7.896;2024-02-26T02:38:34;3.90;99.90
12811;DHT22;6470;47.654;7.896;2024-02-26T02:45:52;6.80;99.90
12811;DHT22;6470;47.654;7.896;2024-02-26T02:48:17;6.40;99.90
12811;DHT22;6470;47.654;7.896;2024-02-26T02:50:43;6.90;99.90
12811;DHT22;6470;47.654;7.896;2024-02-26T02:53:09;6.40;99.90
12811;DHT22;6470;47.654;7.896;2024-02-26T02:55:35;6.40;99.90
12811;DHT22;6470;47.654;7.896;2024-02-26T02:58:01;6.70;99.90
12811;DHT22;6470;47.654;7.896;2024-02-26T03:00:27;7.20;99.90
12811;DHT22;6470;47.654;7.896;2024-02-26T03:02:52;6.80;99.90
12811;DHT22;6470;47.654;7.896;2024-02-26T03:07:44;6.80;99.90
12811;DHT22;6470;47.654;7.896;2024-02-26T03:10:10;6.90;99.90
12811;DHT22;6470;47.654;7.896;2024-02-26T03:12:36;6.10;99.90
12811;DHT22;6470;47.654;7.896;2024-02-26T03:17:28;6.70;99.90
12811;DHT22;6470;47.654;7.896;2024-02-26T03:19:54;6.20;99.90
12811;DHT22;6470;47.654;7.896;2024-02-26T03:24:47;6.50;99.90
12811;DHT22;6470;47.654;7.896;2024-02-26T03:27:13;5.70;99.90
12811;DHT22;6470;47.654;7.896;2024-02-26T03:29:40;6.70;99.90
12811;DHT22;6470;47.654;7.896;2024-02-26T03:32:06;6.40;99.90
12811;DHT22;6470;47.654;7.896;2024-02-26T03:34:32;5.90;99.90
12811;DHT22;6470;47.654;7.896;2024-02-26T03:37:00;6.80;99.90
12811;DHT22;6470;47.654;7.896;2024-02-26T03:39:26;6.90;99.90
12811;DHT22;6470;47.654;7.896;2024-02-26T03:41:52;5.90;99.90
12811;DHT22;6470;47.654;7.896;2024-02-26T03:44:18;6.10;99.90
12811;DHT22;6470;47.654;7.896;2024-02-26T03:46:44;6.60;99.90
12811;DHT22;6470;47.654;7.896;2024-02-26T03:49:10;6.40;99.90
12811;DHT22;6470;47.654;7.896;2024-02-26T03:51:36;6.30;99.90
12811;DHT22;6470;47.654;7.896;2024-02-26T03:54:03;6.50;99.90
12811;DHT22;6470;47.654;7.896;2024-02-26T03:58:54;6.70;99.90
12811;DHT22;6470;47.654;7.896;2024-02-26T04:01:20;6.00;99.90
12811;DHT22;6470;47.654;7.896;2024-02-26T04:03:46;6.40;99.90
12811;DHT22;6470;47.654;7.896;2024-02-26T04:06:12;6.10;99.90
12811;DHT22;6470;47.654;7.896;2024-02-26T04:08:41;6.00;99.90
12811;DHT22;6470;47.654;7.896;2024-02-26T04:11:07;6.10;99.90
12811;DHT22;6470;47.654;7.896;2024-02-26T04:13:33;6.60;99.90
12811;DHT22;6470;47.654;7.896;2024-02-26T04:16:00;6.00;99.90
12811;DHT22;6470;47.654;7.896;2024-02-26T04:18:27;3.30;99.90
12811;DHT22;6470;47.654;7.896;2024-02-26T04:20:53;6.90;99.90
12811;DHT22;6470;47.654;7.896;2024-02-26T04:23:20;6.70;99.90
12811;DHT22;6470;47.654;7.896;2024-02-26T04:25:46;3.50;99.90
12811;DHT22;6470;47.654;7.896;2024-02-26T04:28:12;6.80;99.90
12811;DHT22;6470;47.654;7.896;2024-02-26T04:30:38;6.50;99.90
12811;DHT22;6470;47.654;7.896;2024-02-26T04:33:04;6.20;99.90
12811;DHT22;6470;47.654;7.896;2024-02-26T04:35:30;6.80;99.90
12811;DHT22;6470;47.654;7.896;2024-02-26T04:40:23;6.30;99.90
12811;DHT22;6470;47.654;7.896;2024-02-26T04:42:49;6.30;99.90
12811;DHT22;6470;47.654;7.896;2024-02-26T04:45:15;6.10;99.90
12811;DHT22;6470;47.654;7.896;2024-02-26T04:50:07;5.90;99.90
12811;DHT22;6470;47.654;7.896;2024-02-26T04:54:59;3.30;99.90
12811;DHT22;6470;47.654;7.896;2024-02-26T04:57:25;6.90;99.90
12811;DHT22;6470;47.654;7.896;2024-02-26T04:59:51;5.90;99.90
12811;DHT22;6470;47.654;7.896;2024-02-26T05:02:17;6.50;99.90
12811;DHT22;6470;47.654;7.896;2024-02-26T05:04:43;6.40;99.90
12811;DHT22;6470;47.654;7.896;2024-02-26T05:07:09;6.90;99.90
12811;DHT22;6470;47.654;7.896;2024-02-26T05:09:35;3.30;99.90
12811;DHT22;6470;47.654;7.896;2024-02-26T05:14:27;3.60;99.90
12811;DHT22;6470;47.654;7.896;2024-02-26T05:16:53;6.30;99.90
12811;DHT22;6470;47.654;7.896;2024-02-26T05:19:18;5.30;99.90
12811;DHT22;6470;47.654;7.896;2024-02-26T05:21:44;6.70;99.90
12811;DHT22;6470;47.654;7.896;2024-02-26T05:24:10;6.00;99.90
12811;DHT22;6470;47.654;7.896;2024-02-26T05:26:35;6.90;99.90
12811;DHT22;6470;47.654;7.896;2024-02-26T05:29:01;6.40;99.90
12811;DHT22;6470;47.654;7.896;2024-02-26T05:31:27;7.00;99.90
12811;DHT22;6470;47.654;7.896;2024-02-26T05:33:54;6.80;99.90
12811;DHT22;6470;47.654;7.896;2024-02-26T05:36:20;6.50;99.90
12811;DHT22;6470;47.654;7.896;2024-02-26T05:41:15;6.60;99.90
12811;DHT22;6470;47.654;7.896;2024-02-26T05:43:41;4.00;99.90
12811;DHT22;6470;47.654;7.896;2024-02-26T05:46:07;7.00;99.90
12811;DHT22;6470;47.654;7.896;2024-02-26T05:48:34;4.30;99.90
12811;DHT22;6470;47.654;7.896;2024-02-26T05:50:59;6.50;99.90
12811;DHT22;6470;47.654;7.896;2024-02-26T05:53:25;5.90;99.90
12811;DHT22;6470;47.654;7.896;2024-02-26T05:58:17;6.70;99.90
12811;DHT22;6470;47.654;7.896;2024-02-26T06:00:42;6.20;99.90
12811;DHT22;6470;47.654;7.896;2024-02-26T06:03:08;5.80;99.90
12811;DHT22;6470;47.654;7.896;2024-02-26T06:05:34;6.60;99.90
12811;DHT22;6470;47.654;7.896;2024-02-26T06:07:59;6.50;99.90
12811;DHT22;6470;47.654;7.896;2024-02-26T06:10:25;6.70;99.90
12811;DHT22;6470;47.654;7.896;2024-02-26T06:12:51;6.50;99.90
12811;DHT22;6470;47.654;7.896;2024-02-26T06:15:16;6.30;99.90
12811;DHT22;6470;47.654;7.896;2024-02-26T06:17:42;3.50;99.90
12811;DHT22;6470;47.654;7.896;2024-02-26T06:20:08;6.20;99.90
12811;DHT22;6470;47.654;7.896;2024-02-26T06:22:39;5.90;99.90
12811;DHT22;6470;47.654;7.896;2024-02-26T06:25:05;6.40;99.90
12811;DHT22;6470;47.654;7.896;2024-02-26T06:27:31;6.90;99.90
12811;DHT22;6470;47.654;7.896;2024-02-26T06:29:57;6.50;99.90
12811;DHT22;6470;47.654;7.896;2024-02-26T06:32:22;6.40;99.90
12811;DHT22;6470;47.654;7.896;2024-02-26T06:34:48;5.90;99.90
12811;DHT22;6470;47.654;7.896;2024-02-26T06:37:14;6.40;99.90
12811;DHT22;6470;47.654;7.896;2024-02-26T06:39:39;5.70;99.90
12811;DHT22;6470;47.654;7.896;2024-02-26T06:42:06;3.20;99.90
12811;DHT22;6470;47.654;7.896;2024-02-26T06:47:01;5.80;99.90
12811;DHT22;6470;47.654;7.896;2024-02-26T06:51:53;6.40;99.90
12811;DHT22;6470;47.654;7.896;2024-02-26T06:54:19;5.90;99.90
12811;DHT22;6470;47.654;7.896;2024-02-26T06:56:45;6.10;99.90
12811;DHT22;6470;47.654;7.896;2024-02-26T06:59:11;6.40;99.90
12811;DHT22;6470;47.654;7.896;2024-02-26T07:01:36;6.00;99.90
12811;DHT22;6470;47.654;7.896;2024-02-26T07:08:54;5.90;99.90
12811;DHT22;6470;47.654;7.896;2024-02-26T07:11:20;6.10;99.90
12811;DHT22;6470;47.654;7.896;2024-02-26T07:13:46;5.90;99.90
12811;DHT22;6470;47.654;7.896;2024-02-26T07:16:12;5.90;99.90
12811;DHT22;6470;47.654;7.896;2024-02-26T07:18:39;3.20;99.90
12811;DHT22;6470;47.654;7.896;2024-02-26T07:21:05;5.80;99.90
12811;DHT22;6470;47.654;7.896;2024-02-26T07:23:31;5.30;99.90
12811;DHT22;6470;47.654;7.896;2024-02-26T07:25:57;6.20;99.90
12811;DHT22;6470;47.654;7.896;2024-02-26T07:28:22;6.50;99.90
12811;DHT22;6470;47.654;7.896;2024-02-26T07:30:48;6.40;99.90
12811;DHT22;6470;47.654;7.896;2024-02-26T07:33:14;3.50;99.90
12811;DHT22;6470;47.654;7.896;2024-02-26T07:35:39;6.30;99.90
12811;DHT22;6470;47.654;7.896;2024-02-26T07:38:05;5.90;99.90
12811;DHT22;6470;47.654;7.896;2024-02-26T07:40:31;6.40;99.90
12811;DHT22;6470;47.654;7.896;2024-02-26T07:42:57;6.40;99.90
12811;DHT22;6470;47.654;7.896;2024-02-26T07:45:22;6.30;99.90
12811;DHT22;6470;47.654;7.896;2024-02-26T07:47:48;6.90;99.90
12811;DHT22;6470;47.654;7.896;2024-02-26T07:50:17;6.60;99.90
12811;DHT22;6470;47.654;7.896;2024-02-26T07:52:43;6.60;99.90
12811;DHT22;6470;47.654;7.896;2024-02-26T07:55:09;5.60;99.90
12811;DHT22;6470;47.654;7.896;2024-02-26T07:57:35;6.80;99.90
12811;DHT22;6470;47.654;7.896;2024-02-26T08:00:02;7.00;99.90
12811;DHT22;6470;47.654;7.896;2024-02-26T08:02:28;6.60;99.90
12811;DHT22;6470;47.654;7.896;2024-02-26T08:04:54;7.00;99.90
12811;DHT22;6470;47.654;7.896;2024-02-26T08:09:47;6.40;99.90
12811;DHT22;6470;47.654;7.896;2024-02-26T08:12:13;6.70;99.90
12811;DHT22;6470;47.654;7.896;2024-02-26T08:14:39;7.10;99.90
12811;DHT22;6470;47.654;7.896;2024-02-26T08:17:05;7.90;99.90
12811;DHT22;6470;47.654;7.896;2024-02-26T08:19:30;7.90;99.90
12811;DHT22;6470;47.654;7.896;2024-02-26T08:21:56;7.10;99.90
12811;DHT22;6470;47.654;7.896;2024-02-26T08:24:23;7.80;99.90
12811;DHT22;6470;47.654;7.896;2024-02-26T08:26:49;7.50;99.90
12811;DHT22;6470;47.654;7.896;2024-02-26T08:29:14;7.30;99.90
12811;DHT22;6470;47.654;7.896;2024-02-26T08:31:40;8.10;99.90
12811;DHT22;6470;47.654;7.896;2024-02-26T08:34:06;7.80;99.90
12811;DHT22;6470;47.654;7.896;2024-02-26T08:36:33;7.50;99.90
12811;DHT22;6470;47.654;7.896;2024-02-26T08:38:59;7.50;99.90
12811;DHT22;6470;47.654;7.896;2024-02-26T08:41:25;7.60;99.90
12811;DHT22;6470;47.654;7.896;2024-02-26T08:43:51;8.10;99.90
12811;DHT22;6470;47.654;7.896;2024-02-26T08:46:17;8.10;99.90
12811;DHT22;6470;47.654;7.896;2024-02-26T08:51:09;8.00;99.90
12811;DHT22;6470;47.654;7.896;2024-02-26T08:53:35;8.00;99.90
12811;DHT22;6470;47.654;7.896;2024-02-26T08:56:01;8.70;99.90
12811;DHT22;6470;47.654;7.896;2024-02-26T08:58:27;8.60;99.90
12811;DHT22;6470;47.654;7.896;2024-02-26T09:00:54;9.70;99.90
12811;DHT22;6470;47.654;7.896;2024-02-26T09:03:19;9.00;99.90
12811;DHT22;6470;47.654;7.896;2024-02-26T09:05:45;9.00;99.90
12811;DHT22;6470;47.654;7.896;2024-02-26T09:08:11;9.20;99.90
12811;DHT22;6470;47.654;7.896;2024-02-26T09:10:36;9.20;99.90
12811;DHT22;6470;47.654;7.896;2024-02-26T09:13:02;8.70;99.90
12811;DHT22;6470;47.654;7.896;2024-02-26T09:15:28;8.80;99.90
12811;DHT22;6470;47.654;7.896;2024-02-26T09:20:19;8.60;99.90
12811;DHT22;6470;47.654;7.896;2024-02-26T09:22:46;8.60;99.90
12811;DHT22;6470;47.654;7.896;2024-02-26T09:25:12;8.50;99.90
12811;DHT22;6470;47.654;7.896;2024-02-26T09:27:38;9.20;99.90
12811;DHT22;6470;47.654;7.896;2024-02-26T09:30:04;8.60;99.90
12811;DHT22;6470;47.654;7.896;2024-02-26T09:32:30;9.10;99.90
12811;DHT22;6470;47.654;7.896;2024-02-26T09:34:56;9.00;99.90
12811;DHT22;6470;47.654;7.896;2024-02-26T09:37:22;8.10;99.90
12811;DHT22;6470;47.654;7.896;2024-02-26T09:39:48;9.10;99.90
12811;DHT22;6470;47.654;7.896;2024-02-26T09:42:13;8.90;99.90
12811;DHT22;6470;47.654;7.896;2024-02-26T09:44:40;8.80;99.90
12811;DHT22;6470;47.654;7.896;2024-02-26T09:47:12;9.10;99.90
12811;DHT22;6470;47.654;7.896;2024-02-26T09:49:42;9.60;99.90
12811;DHT22;6470;47.654;7.896;2024-02-26T09:52:08;8.60;99.90
12811;DHT22;6470;47.654;7.896;2024-02-26T09:54:38;9.20;99.90
12811;DHT22;6470;47.654;7.896;2024-02-26T09:57:05;8.70;99.90
12811;DHT22;6470;47.654;7.896;2024-02-26T09:59:40;9.20;99.90
12811;DHT22;6470;47.654;7.896;2024-02-26T10:02:13;9.00;99.90
12811;DHT22;6470;47.654;7.896;2024-02-26T10:04:40;6.80;99.90
12811;DHT22;6470;47.654;7.896;2024-02-26T10:07:11;9.20;99.90
12811;DHT22;6470;47.654;7.896;2024-02-26T10:09:37;9.20;99.90
12811;DHT22;6470;47.654;7.896;2024-02-26T10:12:11;9.60;99.90
12811;DHT22;6470;47.654;7.896;2024-02-26T10:14:40;9.20;99.90
12811;DHT22;6470;47.654;7.896;2024-02-26T10:17:07;10.00;99.90
12811;DHT22;6470;47.654;7.896;2024-02-26T10:19:34;9.40;99.90
12811;DHT22;6470;47.654;7.896;2024-02-26T10:22:00;9.60;99.90
12811;DHT22;6470;47.654;7.896;2024-02-26T10:24:28;9.50;99.90
12811;DHT22;6470;47.654;7.896;2024-02-26T10:26:55;10.30;99.90
12811;DHT22;6470;47.654;7.896;2024-02-26T10:29:21;10.10;99.90
12811;DHT22;6470;47.654;7.896;2024-02-26T10:31:47;12.40;99.90
12811;DHT22;6470;47.654;7.896;2024-02-26T10:34:15;10.40;99.90
12811;DHT22;6470;47.654;7.896;2024-02-26T10:36:42;10.50;99.90
12811;DHT22;6470;47.654;7.896;2024-02-26T10:39:08;9.70;99.90
12811;DHT22;6470;47.654;7.896;2024-02-26T10:41:34;10.00;99.90
12811;DHT22;6470;47.654;7.896;2024-02-26T10:46:26;10.60;99.90
12811;DHT22;6470;47.654;7.896;2024-02-26T10:48:53;12.40;99.90
12811;DHT22;6470;47.654;7.896;2024-02-26T10:51:29;10.50;99.90
12811;DHT22;6470;47.654;7.896;2024-02-26T10:53:59;11.20;99.90
12811;DHT22;6470;47.654;7.896;2024-02-26T10:56:28;10.60;99.90
12811;DHT22;6470;47.654;7.896;2024-02-26T10:58:57;10.20;99.90
12811;DHT22;6470;47.654;7.896;2024-02-26T11:01:27;9.90;99.90
12811;DHT22;6470;47.654;7.896;2024-02-26T11:03:55;12.40;99.90
12811;DHT22;6470;47.654;7.896;2024-02-26T11:06:21;11.80;99.90
12811;DHT22;6470;47.654;7.896;2024-02-26T11:08:50;12.10;99.90
12811;DHT22;6470;47.654;7.896;2024-02-26T11:11:17;12.40;99.90
12811;DHT22;6470;47.654;7.896;2024-02-26T11:13:47;10.70;99.90
12811;DHT22;6470;47.654;7.896;2024-02-26T11:16:21;11.90;99.90
12811;DHT22;6470;47.654;7.896;2024-02-26T11:18:48;12.50;99.90
12811;DHT22;6470;47.654;7.896;2024-02-26T11:21:18;12.10;99.90
12811;DHT22;6470;47.654;7.896;2024-02-26T11:23:46;11.00;99.90
12811;DHT22;6470;47.654;7.896;2024-02-26T11:26:13;12.20;99.90
12811;DHT22;6470;47.654;7.896;2024-02-26T11:28:40;11.40;99.90
12811;DHT22;6470;47.654;7.896;2024-02-26T11:31:07;11.20;99.90
12811;DHT22;6470;47.654;7.896;2024-02-26T11:33:34;12.40;99.90
12811;DHT22;6470;47.654;7.896;2024-02-26T11:36:09;12.40;99.90
12811;DHT22;6470;47.654;7.896;2024-02-26T11:38:35;11.30;99.90
12811;DHT22;6470;47.654;7.896;2024-02-26T11:41:01;15.20;99.90
12811;DHT22;6470;47.654;7.896;2024-02-26T11:46:28;15.00;99.90
12811;DHT22;6470;47.654;7.896;2024-02-26T11:49:00;15.00;99.90
12811;DHT22;6470;47.654;7.896;2024-02-26T11:51:27;15.20;99.90
12811;DHT22;6470;47.654;7.896;2024-02-26T11:53:53;15.60;99.90
12811;DHT22;6470;47.654;7.896;2024-02-26T11:56:21;15.30;99.90
12811;DHT22;6470;47.654;7.896;2024-02-26T11:58:48;15.30;99.90
12811;DHT22;6470;47.654;7.896;2024-02-26T12:04:04;15.00;99.90
12811;DHT22;6470;47.654;7.896;2024-02-26T12:06:30;15.20;99.90
12811;DHT22;6470;47.654;7.896;2024-02-26T12:08:56;12.10;99.90
12811;DHT22;6470;47.654;7.896;2024-02-26T12:11:22;15.60;99.90
12811;DHT22;6470;47.654;7.896;2024-02-26T12:13:48;12.50;99.90
12811;DHT22;6470;47.654;7.896;2024-02-26T12:16:36;15.10;99.90
12811;DHT22;6470;47.654;7.896;2024-02-26T12:19:06;15.60;99.90
12811;DHT22;6470;47.654;7.896;2024-02-26T12:21:36;15.60;99.90
12811;DHT22;6470;47.654;7.896;2024-02-26T12:24:13;14.60;99.90
12811;DHT22;6470;47.654;7.896;2024-02-26T12:26:40;15.30;99.90
12811;DHT22;6470;47.654;7.896;2024-02-26T12:29:06;15.50;99.90
12811;DHT22;6470;47.654;7.896;2024-02-26T12:31:32;15.20;99.90
12811;DHT22;6470;47.654;7.896;2024-02-26T12:34:00;15.30;99.90
12811;DHT22;6470;47.654;7.896;2024-02-26T12:36:25;15.70;99.90
12811;DHT22;6470;47.654;7.896;2024-02-26T12:38:52;15.70;99.90
12811;DHT22;6470;47.654;7.896;2024-02-26T12:41:18;15.70;99.90
12811;DHT22;6470;47.654;7.896;2024-02-26T12:43:44;15.20;99.90
12811;DHT22;6470;47.654;7.896;2024-02-26T12:46:10;15.20;99.90
12811;DHT22;6470;47.654;7.896;2024-02-26T12:48:37;15.50;99.90
12811;DHT22;6470;47.654;7.896;2024-02-26T12:51:03;15.50;99.90
12811;DHT22;6470;47.654;7.896;2024-02-26T12:53:30;15.20;99.90
12811;DHT22;6470;47.654;7.896;2024-02-26T12:55:56;10.20;99.90
12811;DHT22;6470;47.654;7.896;2024-02-26T12:58:22;15.50;99.90
12811;DHT22;6470;47.654;7.896;2024-02-26T13:00:54;15.00;99.90
12811;DHT22;6470;47.654;7.896;2024-02-26T13:03:20;15.30;99.90
12811;DHT22;6470;47.654;7.896;2024-02-26T13:05:46;15.30;99.90
12811;DHT22;6470;47.654;7.896;2024-02-26T13:08:19;10.50;99.90
12811;DHT22;6470;47.654;7.896;2024-02-26T13:10:48;10.50;99.90
12811;DHT22;6470;47.654;7.896;2024-02-26T13:13:16;15.40;99.90
12811;DHT22;6470;47.654;7.896;2024-02-26T13:15:43;15.40;99.90
12811;DHT22;6470;47.654;7.896;2024-02-26T13:18:10;15.70;99.90
12811;DHT22;6470;47.654;7.896;2024-02-26T13:23:06;15.90;99.90
12811;DHT22;6470;47.654;7.896;2024-02-26T13:25:33;10.40;99.90
12811;DHT22;6470;47.654;7.896;2024-02-26T13:28:15;10.70;99.90
12811;DHT22;6470;47.654;7.896;2024-02-26T13:30:55;15.70;99.90
12811;DHT22;6470;47.654;7.896;2024-02-26T13:33:25;15.30;99.90
12811;DHT22;6470;47.654;7.896;2024-02-26T13:35:52;15.30;99.90
12811;DHT22;6470;47.654;7.896;2024-02-26T13:38:18;15.30;99.90
12811;DHT22;6470;47.654;7.896;2024-02-26T13:40:44;15.50;99.90
12811;DHT22;6470;47.654;7.896;2024-02-26T13:45:37;13.50;99.90
12811;DHT22;6470;47.654;7.896;2024-02-26T13:48:07;13.70;99.90
12811;DHT22;6470;47.654;7.896;2024-02-26T13:50:35;15.50;99.90
12811;DHT22;6470;47.654;7.896;2024-02-26T13:53:01;15.20;99.90
12811;DHT22;6470;47.654;7.896;2024-02-26T13:55:27;15.80;99.90
12811;DHT22;6470;47.654;7.896;2024-02-26T13:57:57;15.40;99.90
12811;DHT22;6470;47.654;7.896;2024-02-26T14:00:24;15.90;99.90
12811;DHT22;6470;47.654;7.896;2024-02-26T14:02:52;15.60;99.90
12811;DHT22;6470;47.654;7.896;2024-02-26T14:05:18;15.30;99.90
12811;DHT22;6470;47.654;7.896;2024-02-26T14:10:12;15.50;99.90
12811;DHT22;6470;47.654;7.896;2024-02-26T14:12:38;15.80;99.90
12811;DHT22;6470;47.654;7.896;2024-02-26T14:15:06;15.30;99.90
12811;DHT22;6470;47.654;7.896;2024-02-26T14:17:32;15.30;99.90
12811;DHT22;6470;47.654;7.896;2024-02-26T14:19:58;15.50;99.90
12811;DHT22;6470;47.654;7.896;2024-02-26T14:27:18;16.10;99.90
12811;DHT22;6470;47.654;7.896;2024-02-26T14:32:12;15.70;99.90
12811;DHT22;6470;47.654;7.896;2024-02-26T14:34:38;16.00;99.90
12811;DHT22;6470;47.654;7.896;2024-02-26T14:37:04;16.00;99.90
12811;DHT22;6470;47.654;7.896;2024-02-26T14:39:31;13.80;99.90
12811;DHT22;6470;47.654;7.896;2024-02-26T14:41:58;15.90;99.90
12811;DHT22;6470;47.654;7.896;2024-02-26T14:44:24;10.80;99.90
12811;DHT22;6470;47.654;7.896;2024-02-26T14:46:50;15.60;99.90
12811;DHT22;6470;47.654;7.896;2024-02-26T14:49:17;15.70;99.90
12811;DHT22;6470;47.654;7.896;2024-02-26T14:51:43;15.30;99.90
12811;DHT22;6470;47.654;7.896;2024-02-26T14:54:11;15.30;99.90
12811;DHT22;6470;47.654;7.896;2024-02-26T14:56:37;13.60;99.90
12811;DHT22;6470;47.654;7.896;2024-02-26T14:59:03;15.30;99.90
12811;DHT22;6470;47.654;7.896;2024-02-26T15:01:29;14.40;99.90
12811;DHT22;6470;47.654;7.896;2024-02-26T15:03:54;14.60;99.90
12811;DHT22;6470;47.654;7.896;2024-02-26T15:06:20;15.30;99.90
12811;DHT22;6470;47.654;7.896;2024-02-26T15:11:12;15.30;99.90
12811;DHT22;6470;47.654;7.896;2024-02-26T15:13:37;15.40;99.90
12811;DHT22;6470;47.654;7.896;2024-02-26T15:16:03;15.00;99.90
12811;DHT22;6470;47.654;7.896;2024-02-26T15:18:29;15.60;99.90
12811;DHT22;6470;47.654;7.896;2024-02-26T15:20:55;15.30;99.90
12811;DHT22;6470;47.654;7.896;2024-02-26T15:23:20;15.40;99.90
12811;DHT22;6470;47.654;7.896;2024-02-26T15:25:46;10.20;99.90
12811;DHT22;6470;47.654;7.896;2024-02-26T15:28:12;13.30;99.90
12811;DHT22;6470;47.654;7.896;2024-02-26T15:30:40;15.20;99.90
12811;DHT22;6470;47.654;7.896;2024-02-26T15:33:06;14.70;99.90
12811;DHT22;6470;47.654;7.896;2024-02-26T15:35:31;15.80;99.90
12811;DHT22;6470;47.654;7.896;2024-02-26T15:37:57;15.00;99.90
12811;DHT22;6470;47.654;7.896;2024-02-26T15:40:24;15.90;99.90
12811;DHT22;6470;47.654;7.896;2024-02-26T15:47:42;13.10;99.90
12811;DHT22;6470;47.654;7.896;2024-02-26T15:50:08;16.50;99.90
12811;DHT22;6470;47.654;7.896;2024-02-26T15:52:37;15.30;99.90
12811;DHT22;6470;47.654;7.896;2024-02-26T15:55:05;15.50;99.90
12811;DHT22;6470;47.654;7.896;2024-02-26T15:57:31;14.80;99.90
12811;DHT22;6470;47.654;7.896;2024-02-26T15:59:56;13.30;99.90
12811;DHT22;6470;47.654;7.896;2024-02-26T16:02:27;14.50;99.90
12811;DHT22;6470;47.654;7.896;2024-02-26T16:04:53;14.80;99.90
12811;DHT22;6470;47.654;7.896;2024-02-26T16:07:50;12.90;99.90
12811;DHT22;6470;47.654;7.896;2024-02-26T16:10:17;15.40;99.90
12811;DHT22;6470;47.654;7.896;2024-02-26T16:12:53;15.00;99.90
12811;DHT22;6470;47.654;7.896;2024-02-26T16:15:19;14.80;99.90
12811;DHT22;6470;47.654;7.896;2024-02-26T16:17:49;14.70;99.90
12811;DHT22;6470;47.654;7.896;2024-02-26T16:20:18;12.10;99.90
12811;DHT22;6470;47.654;7.896;2024-02-26T16:22:45;12.00;99.90
12811;DHT22;6470;47.654;7.896;2024-02-26T16:25:11;15.00;99.90
12811;DHT22;6470;47.654;7.896;2024-02-26T16:27:37;15.40;99.90
12811;DHT22;6470;47.654;7.896;2024-02-26T16:30:04;15.20;99.90
12811;DHT22;6470;47.654;7.896;2024-02-26T16:32:36;15.50;99.90
12811;DHT22;6470;47.654;7.896;2024-02-26T16:35:06;15.30;99.90
12811;DHT22;6470;47.654;7.896;2024-02-26T16:37:32;15.30;99.90
12811;DHT22;6470;47.654;7.896;2024-02-26T16:39:59;14.90;99.90
12811;DHT22;6470;47.654;7.896;2024-02-26T16:42:25;14.80;99.90
12811;DHT22;6470;47.654;7.896;2024-02-26T16:44:51;15.10;99.90
12811;DHT22;6470;47.654;7.896;2024-02-26T16:47:17;15.10;99.90
12811;DHT22;6470;47.654;7.896;2024-02-26T16:49:43;15.00;99.90
12811;DHT22;6470;47.654;7.896;2024-02-26T16:52:11;12.50;99.90
12811;DHT22;6470;47.654;7.896;2024-02-26T16:54:38;15.20;99.90
12811;DHT22;6470;47.654;7.896;2024-02-26T16:59:31;12.10;99.90
12811;DHT22;6470;47.654;7.896;2024-02-26T17:04:25;12.40;99.90
12811;DHT22;6470;47.654;7.896;2024-02-26T17:16:38;11.80;99.90
12811;DHT22;6470;47.654;7.896;2024-02-26T17:19:04;10.80;99.90
12811;DHT22;6470;47.654;7.896;2024-02-26T17:21:30;12.20;99.90
12811;DHT22;6470;47.654;7.896;2024-02-26T17:23:56;12.30;99.90
12811;DHT22;6470;47.654;7.896;2024-02-26T17:26:23;10.90;99.90
12811;DHT22;6470;47.654;7.896;2024-02-26T17:28:50;11.60;99.90
12811;DHT22;6470;47.654;7.896;2024-02-26T17:33:48;10.50;99.90
12811;DHT22;6470;47.654;7.896;2024-02-26T17:36:14;10.40;99.90
12811;DHT22;6470;47.654;7.896;2024-02-26T17:38:40;10.20;99.90
12811;DHT22;6470;47.654;7.896;2024-02-26T17:41:07;10.30;99.90
12811;DHT22;6470;47.654;7.896;2024-02-26T17:43:35;9.80;99.90
12811;DHT22;6470;47.654;7.896;2024-02-26T17:46:01;10.10;99.90
12811;DHT22;6470;47.654;7.896;2024-02-26T17:48:28;9.40;99.90
12811;DHT22;6470;47.654;7.896;2024-02-26T17:50:54;9.60;99.90
12811;DHT22;6470;47.654;7.896;2024-02-26T17:53:23;9.20;99.90